createdAt,value
2023-03-16T00:01:42.141Z,100247.72
2023-03-16T00:06:43.919Z,100262.50
2023-03-16T00:11:45.584Z,100268.00
2023-03-16T00:16:47.227Z,100289.63
2023-03-16T00:21:50.216Z,100289.31
2023-03-16T00:26:55.941Z,100289.97
2023-03-16T00:31:58.231Z,100286.88
2023-03-16T00:36:59.870Z,100293.56
2023-03-16T00:42:03.113Z,100292.34
2023-03-16T00:47:06.381Z,100297.25
2023-03-16T00:52:09.040Z,100298.13
2023-03-16T00:57:12.636Z,100313.16
2023-03-16T01:02:16.085Z,100319.84
2023-03-16T01:07:18.292Z,100309.44
2023-03-16T01:12:20.033Z,100323.41
2023-03-16T01:17:22.555Z,100319.13
2023-03-16T01:22:24.663Z,100326.06
2023-03-16T01:27:26.420Z,100330.84
2023-03-16T01:32:28.199Z,100341.03
2023-03-16T01:37:30.184Z,100337.28
2023-03-16T01:42:49.341Z,100331.38
2023-03-16T01:47:52.780Z,100341.59
2023-03-16T01:52:55.014Z,100338.47
2023-03-16T01:57:56.700Z,100345.06
2023-03-16T02:03:04.361Z,100353.19
2023-03-16T02:08:14.789Z,100345.97
2023-03-16T02:13:16.805Z,100357.94
2023-03-16T02:18:19.993Z,100349.09
2023-03-16T02:23:25.155Z,100343.56
2023-03-16T02:28:38.966Z,100346.91
2023-03-16T02:33:44.001Z,100352.25
2023-03-16T02:38:46.519Z,100350.66
2023-03-16T02:44:27.777Z,100366.06
2023-03-16T02:49:39.993Z,100368.53
2023-03-16T02:54:41.665Z,100382.88
2023-03-16T02:59:44.677Z,100384.22
2023-03-16T03:04:46.351Z,100393.88
2023-03-16T03:09:48.169Z,100405.50
2023-03-16T03:14:49.865Z,100404.22
2023-03-16T03:19:54.783Z,100418.78
2023-03-16T03:24:56.899Z,100414.75
2023-03-16T03:29:58.982Z,100419.53
2023-03-16T03:35:02.201Z,100418.00
2023-03-16T03:40:11.834Z,100428.44
2023-03-16T03:45:15.472Z,100431.69
2023-03-16T03:50:17.903Z,100433.41
2023-03-16T03:55:31.037Z,100433.06
2023-03-16T04:00:32.805Z,100433.81
2023-03-16T04:05:34.707Z,100438.34
2023-03-16T04:10:36.551Z,100443.25
2023-03-16T04:15:38.815Z,100457.00
2023-03-16T04:20:55.234Z,100452.72
2023-03-16T04:25:59.404Z,100451.34
2023-03-16T04:31:07.135Z,100456.13
2023-03-16T04:36:14.313Z,100469.97
2023-03-16T04:41:17.923Z,100468.09
2023-03-16T04:46:29.568Z,100471.31
2023-03-16T04:51:33.573Z,100478.38
2023-03-16T04:56:42.233Z,100481.53
2023-03-16T05:01:52.062Z,100497.25
2023-03-16T05:06:54.151Z,100492.72
2023-03-16T05:12:01.368Z,100497.66
2023-03-16T05:17:04.968Z,100499.97
2023-03-16T05:22:07.651Z,100517.94
2023-03-16T05:27:11.263Z,100518.78
2023-03-16T05:32:13.776Z,100527.41
2023-03-16T05:37:16.238Z,100520.69
2023-03-16T05:42:18.092Z,100526.09
2023-03-16T05:47:28.803Z,100534.09
2023-03-16T05:52:33.864Z,100537.97
2023-03-16T05:57:40.272Z,100545.19
2023-03-16T06:02:48.271Z,100553.66
2023-03-16T06:07:51.435Z,100564.28
2023-03-16T06:12:53.834Z,100565.94
2023-03-16T06:17:56.728Z,100563.72
2023-03-16T06:22:58.433Z,100562.50
2023-03-16T06:28:00.293Z,100580.31
2023-03-16T06:33:02.229Z,100587.47
2023-03-16T06:38:04.458Z,100581.63
2023-03-16T06:43:25.231Z,100589.81
2023-03-16T06:48:27.618Z,100599.97
2023-03-16T06:53:29.834Z,100605.81
2023-03-16T06:58:33.823Z,100607.56
2023-03-16T07:03:36.724Z,100607.41
2023-03-16T07:08:59.024Z,100600.81
2023-03-16T07:14:03.184Z,100614.72
2023-03-16T07:19:07.918Z,100618.41
2023-03-16T07:24:10.893Z,100608.28
2023-03-16T07:29:14.378Z,100616.25
2023-03-16T07:34:16.267Z,100610.28
2023-03-16T07:39:23.753Z,100613.28
2023-03-16T07:44:32.357Z,100618.19
2023-03-16T07:49:34.100Z,100611.50
2023-03-16T07:54:37.181Z,100594.47
2023-03-16T07:59:41.658Z,100604.00
2023-03-16T08:04:46.372Z,100614.28
2023-03-16T08:09:49.857Z,100605.47
2023-03-16T08:14:56.510Z,100612.63
2023-03-16T08:20:10.559Z,100614.81
2023-03-16T08:25:14.596Z,100617.09
2023-03-16T08:30:27.205Z,100618.31
2023-03-16T08:35:46.343Z,100622.84
2023-03-16T08:40:50.777Z,100628.69
2023-03-16T08:45:55.941Z,100621.47
2023-03-16T08:51:05.909Z,100614.44
2023-03-16T08:56:10.148Z,100625.34
2023-03-16T09:01:13.980Z,100622.50
2023-03-16T09:06:17.148Z,100621.81
2023-03-16T09:11:19.944Z,100621.38
2023-03-16T09:16:25.513Z,100611.41
2023-03-16T09:21:27.326Z,100629.63
2023-03-16T09:26:29.924Z,100627.22
2023-03-16T09:31:31.647Z,100630.13
2023-03-16T09:36:33.634Z,100621.75
2023-03-16T09:42:10.199Z,100618.06
2023-03-16T09:47:12.315Z,100604.63
2023-03-16T09:52:21.148Z,100595.09
2023-03-16T09:57:26.348Z,100611.63
2023-03-16T10:02:46.753Z,100616.66
2023-03-16T10:08:10.320Z,100613.41
2023-03-16T10:13:30.829Z,100611.25
2023-03-16T10:18:38.790Z,100606.06
2023-03-16T10:23:42.065Z,100594.34
2023-03-16T10:28:45.520Z,100595.34
2023-03-16T10:33:50.554Z,100594.34
2023-03-16T10:39:02.542Z,100586.91
2023-03-16T10:44:12.197Z,100586.69
2023-03-16T10:49:27.144Z,100576.06
2023-03-16T10:54:33.781Z,100580.97
2023-03-16T10:59:37.023Z,100591.47
2023-03-16T11:04:38.707Z,100576.84
2023-03-16T11:09:40.833Z,100582.31
2023-03-16T11:14:45.586Z,100559.53
2023-03-16T11:19:54.536Z,100561.13
2023-03-16T11:25:06.466Z,100572.19
2023-03-16T11:30:16.018Z,100565.34
2023-03-16T11:35:19.448Z,100566.53
2023-03-16T11:40:40.084Z,100566.34
2023-03-16T11:45:49.895Z,100533.25
2023-03-16T11:51:13.399Z,100536.94
2023-03-16T11:56:33.763Z,100540.38
2023-03-16T12:01:43.065Z,100533.13
2023-03-16T12:07:05.447Z,100512.69
2023-03-16T12:12:23.779Z,100521.00
2023-03-16T12:17:30.463Z,100523.09
2023-03-16T12:22:37.614Z,100512.00
2023-03-16T12:27:41.329Z,100487.69
2023-03-16T12:32:53.623Z,100502.63
2023-03-16T12:38:07.777Z,100484.03
2023-03-16T12:43:47.734Z,100491.06
2023-03-16T12:48:54.415Z,100480.47
2023-03-16T12:53:57.427Z,100485.78
2023-03-16T12:59:01.583Z,100471.75
2023-03-16T13:04:10.818Z,100465.72
2023-03-16T13:09:16.761Z,100474.25
2023-03-16T13:14:41.646Z,100473.19
2023-03-16T13:19:46.552Z,100474.28
2023-03-16T13:24:54.538Z,100468.09
2023-03-16T13:29:58.980Z,100466.63
2023-03-16T13:35:05.275Z,100466.66
2023-03-16T13:40:29.998Z,100438.31
2023-03-16T13:45:34.086Z,100461.66
2023-03-16T13:50:36.417Z,100467.66
2023-03-16T13:55:40.294Z,100454.44
2023-03-16T14:00:43.929Z,100439.25
2023-03-16T14:05:46.024Z,100438.28
2023-03-16T14:10:48.515Z,100434.78
2023-03-16T14:15:50.961Z,100444.75
2023-03-16T14:20:54.434Z,100439.75
2023-03-16T14:25:56.152Z,100428.53
2023-03-16T14:31:11.847Z,100413.31
2023-03-16T14:36:15.984Z,100424.69
2023-03-16T14:41:28.314Z,100415.38
2023-03-16T14:46:33.183Z,100418.16
2023-03-16T14:51:37.709Z,100407.41
2023-03-16T14:56:39.441Z,100414.19
2023-03-16T15:01:41.196Z,100426.88
2023-03-16T15:06:43.130Z,100411.59
2023-03-16T15:11:44.800Z,100415.06
2023-03-16T15:16:46.441Z,100426.03
2023-03-16T15:21:48.048Z,100433.97
2023-03-16T15:26:51.311Z,100439.56
2023-03-16T15:31:54.534Z,100435.47
2023-03-16T15:36:56.556Z,100425.81
2023-03-16T15:41:58.199Z,100427.25
2023-03-16T15:47:00.706Z,100438.03
2023-03-16T15:52:02.408Z,100429.72
2023-03-16T15:57:05.788Z,100419.03
2023-03-16T16:02:28.068Z,100431.66
2023-03-16T16:07:29.771Z,100441.72
2023-03-16T16:12:32.546Z,100422.41
2023-03-16T16:17:50.602Z,100420.72
2023-03-16T16:23:00.064Z,100430.44
2023-03-16T16:28:01.865Z,100437.34
2023-03-16T16:33:03.706Z,100439.34
2023-03-16T16:38:05.369Z,100443.72
2023-03-16T16:43:07.306Z,100441.84
2023-03-16T16:48:27.032Z,100442.72
2023-03-16T16:53:29.104Z,100456.88
2023-03-16T16:58:30.979Z,100452.25
2023-03-16T17:03:33.995Z,100462.97
2023-03-16T17:08:36.520Z,100463.22
2023-03-16T17:13:40.519Z,100475.44
2023-03-16T17:18:42.699Z,100472.97
2023-03-16T17:23:44.666Z,100479.59
2023-03-16T17:28:59.250Z,100478.91
2023-03-16T17:34:02.445Z,100494.13
2023-03-16T17:39:09.806Z,100492.88
2023-03-16T17:44:15.176Z,100489.94
2023-03-16T17:49:18.315Z,100490.22
2023-03-16T17:54:19.974Z,100501.06
2023-03-16T17:59:22.976Z,100515.03
2023-03-16T18:04:26.394Z,100517.59
2023-03-16T18:09:28.741Z,100524.63
2023-03-16T18:14:35.749Z,100525.59
2023-03-16T18:19:37.717Z,100524.34
2023-03-16T18:24:40.072Z,100516.78
2023-03-16T18:29:46.864Z,100518.03
2023-03-16T18:34:49.312Z,100524.84
2023-03-16T18:39:52.771Z,100524.50
2023-03-16T18:44:54.862Z,100538.13
2023-03-16T18:49:56.912Z,100528.97
2023-03-16T18:54:58.688Z,100552.41
2023-03-16T19:00:00.330Z,100555.75
2023-03-16T19:05:04.436Z,100556.06
2023-03-16T19:10:19.666Z,100550.50
2023-03-16T19:15:31.914Z,100547.72
2023-03-16T19:20:35.128Z,100547.44
2023-03-16T19:25:39.720Z,100553.00
2023-03-16T19:30:41.824Z,100557.59
2023-03-16T19:35:51.424Z,100557.16
2023-03-16T19:40:59.471Z,100559.72
2023-03-16T19:46:01.147Z,100566.03
2023-03-16T19:51:02.846Z,100578.81
2023-03-16T19:56:05.248Z,100577.41
2023-03-16T20:01:16.579Z,100586.22
2023-03-16T20:06:21.788Z,100590.47
2023-03-16T20:11:30.129Z,100596.38
2023-03-16T20:16:34.454Z,100598.50
2023-03-16T20:21:36.151Z,100602.41
2023-03-16T20:26:37.928Z,100599.72
2023-03-16T20:31:39.571Z,100598.09
2023-03-16T20:36:41.652Z,100594.47
2023-03-16T20:41:43.793Z,100586.25
2023-03-16T20:46:46.939Z,100582.78
2023-03-16T20:51:49.873Z,100590.81
2023-03-16T20:56:51.545Z,100583.72
2023-03-16T21:01:55.591Z,100592.97
2023-03-16T21:06:57.678Z,100597.56
2023-03-16T21:11:59.462Z,100602.19
2023-03-16T21:17:01.201Z,100599.13
2023-03-16T21:22:02.887Z,100608.25
2023-03-16T21:27:04.584Z,100597.97
2023-03-16T21:32:20.039Z,100600.91
2023-03-16T21:37:24.205Z,100597.22
2023-03-16T21:42:26.034Z,100591.97
2023-03-16T21:47:29.213Z,100588.56
2023-03-16T21:52:31.173Z,100587.22
2023-03-16T21:57:32.954Z,100576.81
2023-03-16T22:02:36.763Z,100572.91
2023-03-16T22:07:38.400Z,100560.69
2023-03-16T22:12:40.019Z,100566.81
2023-03-16T22:17:41.748Z,100566.25
2023-03-16T22:22:43.370Z,100584.47
2023-03-16T22:27:45.613Z,100593.59
2023-03-16T22:32:50.978Z,100593.94
2023-03-16T22:37:54.950Z,100601.28
2023-03-16T22:43:02.112Z,100589.88
2023-03-16T22:48:19.461Z,100598.28
2023-03-16T22:53:32.605Z,100591.78
2023-03-16T22:58:53.443Z,100577.44
2023-03-16T23:03:55.028Z,100577.06
2023-03-16T23:08:56.845Z,100579.28
2023-03-16T23:13:59.705Z,100582.31
2023-03-16T23:19:01.675Z,100584.41
2023-03-16T23:24:04.682Z,100576.81
2023-03-16T23:29:06.985Z,100572.00
2023-03-16T23:34:20.062Z,100575.63
2023-03-16T23:39:21.800Z,100569.91
2023-03-16T23:44:26.439Z,100578.84
2023-03-16T23:49:33.354Z,100580.44
2023-03-16T23:54:35.079Z,100592.06
2023-03-16T23:59:36.870Z,100594.38
